San Pedro, Argentina
Current Conditions -  °F | °C
As of 3:00 PM on Thursday 30 Oct 2014 (Local Time) from SASJ Reporting Station
Few Clouds Few Clouds  
Wind Chill: 29°   Ceiling: Unl
Heat Index: 29°   Visibility: 6mi
Dew Point: 16°   Wind: 6mph
Humidity: 45%   Direction: 70°ENE
Pressure: 29.77"   Gusts: NA
Location:  24.22°S, 64.87°W
Report Text: SASJ 301800Z 07005KT 360V150 9999 FEW03029/16 Q1008
Loading
Personal Weather Stations






























Interactive Weather Map
Tropical Storm Tracking
New forecast layout! Learn more

10-Day Weather Forecast

Advertisements
Track Severe Weather on mobile